createdAt,value
2023-04-21T00:08:21.791Z,9.40
2023-04-21T00:18:48.649Z,12.70
2023-04-21T00:29:14.226Z,14.10
2023-04-21T00:39:39.800Z,17.00
2023-04-21T00:50:06.550Z,17.50
2023-04-21T01:00:33.270Z,20.30
2023-04-21T01:10:59.172Z,16.20
2023-04-21T01:21:25.178Z,14.90
2023-04-21T01:31:50.783Z,16.20
2023-04-21T01:42:16.895Z,14.60
2023-04-21T01:52:42.690Z,16.20
2023-04-21T02:03:09.069Z,15.20
2023-04-21T02:13:34.807Z,22.50
2023-04-21T02:24:00.515Z,19.20
2023-04-21T02:34:46.807Z,31.70
2023-04-21T02:45:14.389Z,23.30
2023-04-21T02:55:39.878Z,17.20
2023-04-21T03:06:07.642Z,14.60
2023-04-21T03:16:33.777Z,11.90
2023-04-21T03:26:59.907Z,12.30
2023-04-21T03:37:26.094Z,10.90
2023-04-21T03:47:54.009Z,18.60
2023-04-21T03:58:20.005Z,22.70
2023-04-21T04:08:45.674Z,20.00
2023-04-21T04:19:12.535Z,19.00
2023-04-21T04:29:38.236Z,15.50
2023-04-21T04:40:06.461Z,13.70
2023-04-21T04:50:32.316Z,15.50
2023-04-21T05:00:57.755Z,15.30
2023-04-21T05:11:23.770Z,16.60
2023-04-21T05:21:50.029Z,18.50
2023-04-21T05:32:16.153Z,20.30
2023-04-21T05:42:41.691Z,19.50
2023-04-21T05:53:07.401Z,19.60
2023-04-21T06:03:35.162Z,18.30
2023-04-21T06:14:01.936Z,17.40
2023-04-21T06:24:35.125Z,18.50
2023-04-21T06:35:00.907Z,17.90
2023-04-21T06:45:27.480Z,17.40
2023-04-21T06:55:53.811Z,17.60
2023-04-21T07:06:19.764Z,13.40
2023-04-21T07:16:45.774Z,17.10
2023-04-21T07:27:11.349Z,14.80
2023-04-21T07:37:37.210Z,14.90
2023-04-21T07:48:02.942Z,12.30
2023-04-21T07:58:29.073Z,12.70
2023-04-21T08:08:56.121Z,9.30
2023-04-21T08:19:22.319Z,8.30
2023-04-21T08:29:50.737Z,8.40
2023-04-21T08:40:35.990Z,8.90
2023-04-21T08:51:03.046Z,8.50
2023-04-21T09:01:28.640Z,9.00
2023-04-21T09:12:00.150Z,8.40
2023-04-21T09:22:30.569Z,7.70
2023-04-21T09:32:59.558Z,8.90
2023-04-21T09:43:25.050Z,7.50
2023-04-21T09:53:54.306Z,6.90
2023-04-21T10:04:21.880Z,6.00
2023-04-21T10:14:51.500Z,6.00
2023-04-21T10:25:17.325Z,5.90
2023-04-21T10:36:05.111Z,6.40
2023-04-21T10:57:03.368Z,5.80
2023-04-21T11:07:29.546Z,5.20
2023-04-21T11:17:55.892Z,6.40
2023-04-21T11:28:24.891Z,6.60
2023-04-21T11:38:51.375Z,5.60
2023-04-21T11:49:18.518Z,5.50
2023-04-21T11:59:46.548Z,5.60
2023-04-21T12:10:14.760Z,5.70
2023-04-21T12:20:40.453Z,5.70
2023-04-21T12:31:06.451Z,6.10
2023-04-21T12:41:32.190Z,5.30
2023-04-21T12:51:57.631Z,4.30
2023-04-21T13:02:23.825Z,5.20
2023-04-21T13:12:49.369Z,5.60
2023-04-21T13:23:16.405Z,5.40
2023-04-21T13:33:42.923Z,5.90
2023-04-21T13:44:08.793Z,4.90
2023-04-21T13:54:35.081Z,5.40
2023-04-21T14:05:01.188Z,5.50
2023-04-21T14:15:27.308Z,5.50
2023-04-21T14:25:54.810Z,5.10
2023-04-21T14:36:21.196Z,5.10
2023-04-21T14:46:53.732Z,4.80
2023-04-21T14:57:32.028Z,5.80
2023-04-21T15:07:57.651Z,5.30
2023-04-21T15:18:23.545Z,4.10
2023-04-21T15:28:49.512Z,3.80
2023-04-21T15:39:15.589Z,3.80
2023-04-21T15:49:41.589Z,3.40
2023-04-21T16:00:10.414Z,4.00
2023-04-21T16:10:36.297Z,5.10
2023-04-21T16:21:02.521Z,4.00
2023-04-21T16:31:28.297Z,4.00
2023-04-21T16:41:54.308Z,4.20
2023-04-21T16:52:20.240Z,3.80
2023-04-21T17:02:46.379Z,4.10
2023-04-21T17:13:12.398Z,4.10
2023-04-21T17:23:38.565Z,3.80
2023-04-21T17:34:04.514Z,4.90
2023-04-21T17:44:30.077Z,4.70
2023-04-21T17:54:56.163Z,4.40
2023-04-21T18:05:21.695Z,3.60
2023-04-21T18:15:47.702Z,4.80
2023-04-21T18:26:13.800Z,4.80
2023-04-21T18:36:39.894Z,5.20
2023-04-21T18:47:06.265Z,4.90
2023-04-21T18:57:32.235Z,6.40
2023-04-21T19:07:58.141Z,5.60
2023-04-21T19:18:24.123Z,6.30
2023-04-21T19:28:49.710Z,9.30
2023-04-21T19:39:16.087Z,9.00
2023-04-21T19:49:42.278Z,11.90
2023-04-21T20:00:11.915Z,9.40
2023-04-21T20:10:42.135Z,8.50
2023-04-21T20:21:08.216Z,10.10
2023-04-21T20:31:34.521Z,11.20
2023-04-21T20:42:12.424Z,10.30
2023-04-21T20:52:41.103Z,10.40
2023-04-21T21:03:10.199Z,7.80
2023-04-21T21:13:36.335Z,9.10
2023-04-21T21:24:02.174Z,8.90
2023-04-21T21:34:28.302Z,18.40
2023-04-21T21:44:53.827Z,10.60
2023-04-21T21:55:19.745Z,8.80
2023-04-21T22:05:46.071Z,10.30
2023-04-21T22:16:11.871Z,11.10
2023-04-21T22:26:37.824Z,8.70
2023-04-21T22:37:05.660Z,11.20
2023-04-21T22:47:31.359Z,10.10
2023-04-21T22:57:57.027Z,11.60
2023-04-21T23:08:23.121Z,9.00
2023-04-21T23:18:48.867Z,10.60
2023-04-21T23:29:14.629Z,10.70
2023-04-21T23:39:40.689Z,9.10
2023-04-21T23:50:07.251Z,11.00
